Time;durP1;ratioP1;P1;durP2;ratioP2;P2;SDS_P1;SDS_P2;PMS_P1;PMS_P2;Temp;Humidity;BMP_temperature;BMP_pressure;BME280_temperature;BME280_humidity;BME280_pressure;Samples;Min_cycle;Max_cycle;Signal;HPM_P1;HPM_P2
2021/01/26 00:00:12;;;;;;;3.05;0.80;;;3.50;91.20;;;;;;2072024;28;20025;-80
2021/01/26 00:01:13;;;;;;;2.08;0.63;;;3.50;91.20;;;;;;2071705;28;20507;-80
2021/01/26 00:02:14;;;;;;;3.35;0.70;;;3.50;91.40;;;;;;2072215;28;20022;-81
2021/01/26 00:03:14;;;;;;;1.88;0.63;;;3.50;91.20;;;;;;2065095;28;20979;-80
2021/01/26 00:04:15;;;;;;;1.52;0.52;;;3.50;91.20;;;;;;2081167;28;20046;-80
2021/01/26 00:05:16;;;;;;;1.67;0.70;;;3.40;91.20;;;;;;2080373;28;20593;-80
2021/01/26 00:06:17;;;;;;;3.03;0.70;;;3.40;91.20;;;;;;2080823;28;20029;-80
2021/01/26 00:07:18;;;;;;;2.97;1.08;;;3.50;91.20;;;;;;2081120;28;20029;-80
2021/01/26 00:08:19;;;;;;;3.72;0.70;;;3.50;91.20;;;;;;2081534;28;20072;-80
2021/01/26 00:09:20;;;;;;;2.53;0.77;;;3.50;91.20;;;;;;2078380;28;20116;-80
2021/01/26 00:10:21;;;;;;;3.53;0.73;;;3.50;91.20;;;;;;2081264;28;20499;-80
2021/01/26 00:11:21;;;;;;;2.85;0.80;;;3.50;91.20;;;;;;2081037;28;20112;-80
2021/01/26 00:12:22;;;;;;;5.28;0.80;;;3.50;91.50;;;;;;2081070;28;20034;-80
2021/01/26 00:13:22;;;;;;;3.25;0.90;;;3.50;91.20;;;;;;2093390;28;20028;-80
2021/01/26 00:14:23;;;;;;;2.45;0.95;;;3.50;91.20;;;;;;2084576;28;20021;-80
2021/01/26 00:15:35;;;;;;;3.35;1.08;;;3.50;91.20;;;;;;2077358;28;20058;-80
2021/01/26 00:16:35;;;;;;;2.78;0.73;;;3.50;91.20;;;;;;2080990;28;20458;-80
2021/01/26 00:17:36;;;;;;;3.33;0.90;;;3.50;91.20;;;;;;2073569;28;20084;-80
2021/01/26 00:18:37;;;;;;;3.35;0.82;;;3.50;91.20;;;;;;2073487;28;20025;-81
2021/01/26 00:19:37;;;;;;;2.63;0.70;;;3.50;91.20;;;;;;2088648;28;20025;-80
2021/01/26 00:20:38;;;;;;;3.22;0.90;;;3.50;91.20;;;;;;2089393;28;20033;-81
2021/01/26 00:21:39;;;;;;;2.55;0.82;;;3.50;91.20;;;;;;2080545;28;20531;-80
2021/01/26 00:22:40;;;;;;;4.60;0.98;;;3.60;91.20;;;;;;2093318;28;20024;-80
2021/01/26 00:23:40;;;;;;;2.85;1.13;;;3.50;91.20;;;;;;2072321;28;20026;-80
2021/01/26 00:24:41;;;;;;;3.70;0.80;;;3.60;91.20;;;;;;2077212;28;20460;-81
2021/01/26 00:25:43;;;;;;;5.43;0.85;;;3.60;91.20;;;;;;2083709;28;20034;-80
2021/01/26 00:26:43;;;;;;;4.22;1.10;;;3.60;91.20;;;;;;2079928;28;20025;-80
2021/01/26 00:27:44;;;;;;;4.38;0.85;;;3.60;91.20;;;;;;2078829;28;20110;-80
2021/01/26 00:28:45;;;;;;;2.80;1.00;;;3.60;91.20;;;;;;2075985;28;20034;-80
2021/01/26 00:29:45;;;;;;;4.00;1.10;;;3.60;91.20;;;;;;2095956;28;20040;-80
2021/01/26 00:30:46;;;;;;;3.47;0.90;;;3.60;91.20;;;;;;2088861;28;20029;-80
2021/01/26 00:31:47;;;;;;;2.92;0.80;;;3.60;91.20;;;;;;2070537;28;20077;-80
2021/01/26 00:32:48;;;;;;;3.70;1.10;;;3.50;91.50;;;;;;2071270;28;20090;-80
2021/01/26 00:33:49;;;;;;;3.75;0.80;;;3.50;91.20;;;;;;2073258;28;20045;-80
2021/01/26 00:34:49;;;;;;;4.60;0.70;;;3.50;91.30;;;;;;2076406;28;20030;-80
2021/01/26 00:35:51;;;;;;;3.65;0.90;;;3.50;91.30;;;;;;2081524;28;20036;-81
2021/01/26 00:36:52;;;;;;;2.00;0.70;;;3.50;91.30;;;;;;2081265;28;20088;-80
2021/01/26 00:37:52;;;;;;;3.92;0.90;;;3.50;91.30;;;;;;2081588;28;20496;-80
2021/01/26 00:38:53;;;;;;;5.07;0.90;;;3.50;91.60;;;;;;2081553;28;20118;-80
2021/01/26 00:39:54;;;;;;;3.28;0.90;;;3.50;91.30;;;;;;2073186;28;20022;-80
2021/01/26 00:40:54;;;;;;;5.25;0.90;;;3.50;91.30;;;;;;2079692;28;20546;-80
2021/01/26 00:41:55;;;;;;;3.85;1.10;;;3.60;91.40;;;;;;2097444;28;20436;-81
2021/01/26 00:42:56;;;;;;;3.03;0.70;;;3.50;91.30;;;;;;2086984;28;20025;-80
2021/01/26 00:43:56;;;;;;;4.43;1.00;;;3.60;91.40;;;;;;2078851;28;20029;-80
2021/01/26 00:44:57;;;;;;;5.18;1.00;;;3.60;91.30;;;;;;2087661;28;20075;-80
2021/01/26 00:45:58;;;;;;;3.97;0.77;;;3.60;91.40;;;;;;2089825;28;20548;-80
2021/01/26 00:46:58;;;;;;;4.30;0.80;;;3.50;91.30;;;;;;2068382;28;20030;-80
2021/01/26 00:47:59;;;;;;;2.42;0.80;;;3.50;91.30;;;;;;2071066;28;20034;-79
2021/01/26 00:49:00;;;;;;;3.70;0.80;;;3.50;91.30;;;;;;2080808;28;20021;-80
2021/01/26 00:50:01;;;;;;;2.95;0.90;;;3.50;91.40;;;;;;2073044;28;20512;-80
2021/01/26 00:51:03;;;;;;;3.17;0.98;;;3.50;91.40;;;;;;2072091;28;20507;-80
2021/01/26 00:52:03;;;;;;;3.20;0.77;;;3.50;91.40;;;;;;2081125;28;20026;-80
2021/01/26 00:53:04;;;;;;;5.07;1.02;;;3.40;91.40;;;;;;2076765;28;20026;-80
2021/01/26 00:54:05;;;;;;;4.65;0.95;;;3.40;91.40;;;;;;2096340;28;20066;-80
2021/01/26 00:55:07;;;;;;;2.38;0.82;;;3.40;91.40;;;;;;2089599;28;20514;-80
2021/01/26 00:56:08;;;;;;;3.10;0.90;;;3.40;91.40;;;;;;2080680;28;20034;-80
2021/01/26 00:57:09;;;;;;;3.03;1.05;;;3.40;91.70;;;;;;2088691;28;20120;-80
2021/01/26 00:58:09;;;;;;;4.32;0.80;;;3.40;91.50;;;;;;2077437;28;20026;-80
2021/01/26 00:59:10;;;;;;;3.08;1.00;;;3.40;91.50;;;;;;2097342;28;20078;-80
2021/01/26 01:00:17;;;;;;;4.22;0.98;;;3.40;91.50;;;;;;2097109;28;20028;-80
2021/01/26 01:01:18;;;;;;;3.20;0.70;;;3.40;91.50;;;;;;2081858;28;20037;-80
2021/01/26 01:02:19;;;;;;;2.92;0.80;;;3.40;91.50;;;;;;2081052;28;20037;-80
2021/01/26 01:03:19;;;;;;;3.63;0.82;;;3.40;91.50;;;;;;2080617;28;20101;-80
2021/01/26 01:04:20;;;;;;;4.43;1.10;;;3.40;91.50;;;;;;2092140;28;20032;-79
2021/01/26 01:05:21;;;;;;;3.25;0.70;;;3.40;91.50;;;;;;2089144;28;20116;-79
2021/01/26 01:06:21;;;;;;;3.67;0.93;;;3.40;91.50;;;;;;2081139;28;20083;-80
2021/01/26 01:07:22;;;;;;;4.45;0.65;;;3.40;91.50;;;;;;2089767;28;20025;-79
2021/01/26 01:08:23;;;;;;;2.25;0.60;;;3.40;91.50;;;;;;2093720;28;20879;-80
2021/01/26 01:09:23;;;;;;;2.75;0.70;;;3.40;91.50;;;;;;2097877;28;20474;-81
2021/01/26 01:10:27;;;;;;;3.60;0.73;;;3.30;91.50;;;;;;2080432;28;20033;-81
2021/01/26 01:11:30;;;;;;;1.40;0.50;;;3.30;91.70;;;;;;2080995;28;20040;-80
2021/01/26 01:12:30;;;;;;;3.80;0.73;;;3.30;91.50;;;;;;2079281;28;20070;-80
2021/01/26 01:13:31;;;;;;;4.88;0.70;;;3.30;91.50;;;;;;2072535;28;20096;-80
2021/01/26 01:14:32;;;;;;;3.20;0.70;;;3.30;91.50;;;;;;2073237;28;20486;-80
2021/01/26 01:15:32;;;;;;;4.40;0.90;;;3.30;91.50;;;;;;2075060;28;20041;-81
2021/01/26 01:16:33;;;;;;;5.28;0.77;;;3.30;91.50;;;;;;2072790;28;20085;-80
2021/01/26 01:17:34;;;;;;;3.00;0.57;;;3.30;91.50;;;;;;2086821;28;20178;-80
2021/01/26 01:18:34;;;;;;;4.13;0.80;;;3.30;91.50;;;;;;2080030;28;20681;-80
2021/01/26 01:19:35;;;;;;;3.80;0.60;;;3.30;91.50;;;;;;2081164;28;20037;-80
2021/01/26 01:20:36;;;;;;;4.07;1.00;;;3.30;91.50;;;;;;2068523;28;20041;-80
2021/01/26 01:21:37;;;;;;;4.85;0.90;;;3.30;91.60;;;;;;2066298;28;20030;-80
2021/01/26 01:22:38;;;;;;;4.05;1.00;;;3.20;91.80;;;;;;2072295;28;20471;-80
2021/01/26 01:23:41;;;;;;;5.78;0.80;;;3.30;91.60;;;;;;2080742;28;20035;-81
2021/01/26 01:24:42;;;;;;;2.80;0.90;;;3.20;91.50;;;;;;2093703;28;20029;-80
2021/01/26 01:25:42;;;;;;;6.20;1.13;;;3.20;91.50;;;;;;2084881;28;20061;-80
2021/01/26 01:26:43;;;;;;;3.50;1.02;;;3.20;91.60;;;;;;2081273;28;20117;-80
2021/01/26 01:27:45;;;;;;;5.65;1.10;;;3.30;91.60;;;;;;2079466;28;20029;-80
2021/01/26 01:28:45;;;;;;;4.85;0.90;;;3.20;91.60;;;;;;2080786;28;20029;-80
2021/01/26 01:29:46;;;;;;;4.63;1.00;;;3.20;91.60;;;;;;2072442;28;20034;-80
2021/01/26 01:30:46;;;;;;;5.85;1.10;;;3.20;91.60;;;;;;2073122;28;20029;-80
2021/01/26 01:31:47;;;;;;;5.93;1.08;;;3.30;91.60;;;;;;2072981;28;20038;-80
2021/01/26 01:32:48;;;;;;;6.68;1.35;;;3.30;91.60;;;;;;2065734;28;20398;-80
2021/01/26 01:33:49;;;;;;;4.72;1.00;;;3.30;91.60;;;;;;2077443;28;20013;-79
2021/01/26 01:34:49;;;;;;;4.85;1.10;;;3.30;91.60;;;;;;2080571;28;20038;-80
2021/01/26 01:35:50;;;;;;;4.80;1.10;;;3.30;91.60;;;;;;2064260;28;20153;-80
2021/01/26 01:36:51;;;;;;;4.43;0.95;;;3.30;91.60;;;;;;2073295;28;20038;-80
2021/01/26 01:37:52;;;;;;;4.35;0.82;;;3.30;91.60;;;;;;2089163;28;20037;-81
2021/01/26 01:38:53;;;;;;;5.10;0.98;;;3.30;91.60;;;;;;2085657;28;20029;-81
2021/01/26 01:39:53;;;;;;;5.45;1.08;;;3.30;91.60;;;;;;2081844;28;20079;-80
2021/01/26 01:40:54;;;;;;;5.40;1.13;;;3.30;91.60;;;;;;2073805;28;20034;-81
2021/01/26 01:41:54;;;;;;;6.15;0.98;;;3.30;91.60;;;;;;2065482;28;20030;-80
2021/01/26 01:42:55;;;;;;;5.03;1.00;;;3.30;91.60;;;;;;2081152;28;20132;-80
2021/01/26 01:43:56;;;;;;;4.63;1.13;;;3.40;91.90;;;;;;2064452;28;20042;-80
2021/01/26 01:44:57;;;;;;;3.85;1.02;;;3.40;91.60;;;;;;2063243;28;20464;-80
2021/01/26 01:45:58;;;;;;;4.80;1.10;;;3.40;91.70;;;;;;2072928;28;20389;-81
2021/01/26 01:47:00;;;;;;;5.45;1.00;;;3.40;91.60;;;;;;2070287;28;20095;-81
2021/01/26 01:48:09;;;;;;;5.38;1.30;;;3.40;91.60;;;;;;2074827;28;20461;-80
2021/01/26 01:49:16;;;;;;;5.25;0.90;;;3.40;91.60;;;;;;2074135;28;20461;-80
2021/01/26 01:50:25;;;;;;;6.05;1.30;;;3.40;91.60;;;;;;2088394;28;20494;-80
2021/01/26 01:51:27;;;;;;;2.75;0.68;;;3.40;91.60;;;;;;2096876;28;20025;-80
2021/01/26 01:52:32;;;;;;;4.43;1.00;;;3.40;91.60;;;;;;2083523;28;20559;-81
2021/01/26 01:53:39;;;;;;;2.95;0.70;;;3.40;91.60;;;;;;2068690;28;20088;-81
2021/01/26 01:54:46;;;;;;;2.47;0.70;;;3.40;91.60;;;;;;2080680;28;20025;-81
2021/01/26 01:55:55;;;;;;;6.45;1.15;;;3.40;91.60;;;;;;2079377;28;20087;-80
2021/01/26 01:56:58;;;;;;;4.65;0.85;;;3.40;91.60;;;;;;2093285;28;20520;-81
2021/01/26 01:58:09;;;;;;;4.55;0.80;;;3.40;91.60;;;;;;2103047;28;20028;-81
2021/01/26 01:59:24;;;;;;;4.68;0.93;;;3.40;91.60;;;;;;2086860;28;20383;-81
2021/01/26 02:00:25;;;;;;;3.22;0.70;;;3.40;91.60;;;;;;2089922;28;20078;-81
2021/01/26 02:01:28;;;;;;;4.10;0.68;;;3.40;91.50;;;;;;2080128;28;20068;-81
2021/01/26 02:02:29;;;;;;;4.03;1.05;;;3.40;91.50;;;;;;2067144;28;20081;-80
2021/01/26 02:03:34;;;;;;;3.58;0.90;;;3.40;91.50;;;;;;2087648;28;20037;-81
2021/01/26 02:04:36;;;;;;;4.65;0.98;;;3.40;91.60;;;;;;2080775;28;20029;-80
2021/01/26 02:05:37;;;;;;;3.35;0.70;;;3.40;91.50;;;;;;2080812;28;20030;-81
2021/01/26 02:06:42;;;;;;;4.68;0.73;;;3.40;91.50;;;;;;2080339;28;20508;-80
2021/01/26 02:07:43;;;;;;;2.33;0.55;;;3.40;91.60;;;;;;2078098;28;20033;-80
2021/01/26 02:09:09;;;;;;;3.10;0.63;;;3.40;91.50;;;;;;2080798;28;20403;-80
2021/01/26 02:10:11;;;;;;;3.90;0.75;;;3.40;91.50;;;;;;2091152;28;20029;-80
2021/01/26 02:11:12;;;;;;;4.00;0.60;;;3.40;91.50;;;;;;2080058;28;20542;-80
2021/01/26 02:12:13;;;;;;;4.75;0.80;;;3.40;91.50;;;;;;2063976;28;20170;-80
2021/01/26 02:13:14;;;;;;;4.13;0.73;;;3.40;91.50;;;;;;2080894;28;20040;-80
2021/01/26 02:14:15;;;;;;;3.50;0.50;;;3.40;91.50;;;;;;2075087;28;20029;-80
2021/01/26 02:15:15;;;;;;;3.25;0.50;;;3.40;91.50;;;;;;2067366;28;20105;-80
2021/01/26 02:16:31;;;;;;;3.33;0.50;;;3.40;91.50;;;;;;2070774;28;20064;-79
2021/01/26 02:17:54;;;;;;;4.55;0.60;;;3.40;91.50;;;;;;2089899;28;20117;-80
2021/01/26 02:19:17;;;;;;;2.83;0.50;;;3.40;91.50;;;;;;2089189;28;20056;-79
2021/01/26 02:20:26;;;;;;;3.30;0.50;;;3.40;91.40;;;;;;2089633;28;20026;-80
2021/01/26 02:22:04;;;;;;;3.55;0.60;;;3.40;91.40;;;;;;2090986;28;20089;-80
2021/01/26 02:23:29;;;;;;;3.38;0.32;;;3.40;91.40;;;;;;2084829;28;20022;-80
2021/01/26 02:24:49;;;;;;;4.13;0.57;;;3.40;91.30;;;;;;2090696;28;20013;-80
2021/01/26 02:25:49;;;;;;;2.35;0.50;;;3.40;91.30;;;;;;2082054;28;20045;-79
2021/01/26 02:27:11;;;;;;;1.85;0.40;;;3.40;91.30;;;;;;2089500;28;20539;-79
2021/01/26 02:28:48;;;;;;;3.50;0.50;;;3.40;91.40;;;;;;2080699;28;20025;-79
2021/01/26 02:30:07;;;;;;;4.45;0.52;;;3.30;91.40;;;;;;2081870;28;20022;-79
2021/01/26 02:31:46;;;;;;;4.15;0.50;;;3.30;91.40;;;;;;2085380;28;20124;-80
2021/01/26 02:33:23;;;;;;;2.47;0.60;;;3.30;91.40;;;;;;2094143;28;20092;-79
2021/01/26 02:34:36;;;;;;;5.47;1.08;;;3.30;91.40;;;;;;2089309;28;20018;-80
2021/01/26 02:35:49;;;;;;;1.90;0.50;;;3.30;91.40;;;;;;2085016;28;20021;-79
2021/01/26 02:37:20;;;;;;;3.95;0.70;;;3.30;91.40;;;;;;2089416;28;20037;-79
2021/01/26 02:38:21;;;;;;;;;;;3.30;91.40;;;;;;2080525;28;20025;-79
2021/01/26 02:39:34;;;;;;;4.68;0.60;;;3.30;91.40;;;;;;2077648;28;19959;-79
2021/01/26 02:41:00;;;;;;;3.08;0.40;;;3.30;91.30;;;;;;2081302;28;20031;-80
2021/01/26 02:42:26;;;;;;;3.67;0.55;;;3.30;91.30;;;;;;2089322;28;20102;-80
2021/01/26 02:43:41;;;;;;;3.72;0.55;;;3.30;91.30;;;;;;2091062;28;20552;-79
2021/01/26 02:45:16;;;;;;;3.63;0.70;;;3.30;91.30;;;;;;2078660;28;20022;-80
2021/01/26 02:46:46;;;;;;;3.50;0.50;;;3.30;91.30;;;;;;2091373;28;20080;-79
2021/01/26 02:48:16;;;;;;;1.85;0.30;;;3.30;91.40;;;;;;2084544;28;20045;-79
2021/01/26 02:49:38;;;;;;;4.43;0.80;;;3.30;91.40;;;;;;2075453;28;20030;-79
2021/01/26 02:50:41;;;;;;;4.00;0.60;;;3.30;91.30;;;;;;2084608;28;20118;-79
2021/01/26 02:52:06;;;;;;;3.53;0.60;;;3.30;91.30;;;;;;2094173;28;20108;-81
2021/01/26 02:53:18;;;;;;;4.20;0.60;;;3.30;91.40;;;;;;2089076;28;20017;-80
2021/01/26 02:54:26;;;;;;;4.30;0.60;;;3.30;91.40;;;;;;2094953;28;20029;-81
2021/01/26 02:55:41;;;;;;;2.78;0.60;;;3.30;91.30;;;;;;2091071;28;20017;-80
2021/01/26 02:56:42;;;;;;;3.10;0.80;;;3.30;91.30;;;;;;2081968;28;20044;-79
2021/01/26 02:57:51;;;;;;;3.28;0.60;;;3.30;91.30;;;;;;2080025;28;20079;-79
2021/01/26 02:59:30;;;;;;;2.08;0.50;;;3.40;91.30;;;;;;2080347;28;20123;-79
2021/01/26 03:00:33;;;;;;;2.92;0.50;;;3.40;91.30;;;;;;2081071;28;20033;-79
2021/01/26 03:01:42;;;;;;;5.45;0.50;;;3.40;91.30;;;;;;2085139;28;20029;-80
2021/01/26 03:02:57;;;;;;;4.32;0.60;;;3.40;91.30;;;;;;2080760;28;20033;-79
2021/01/26 03:04:04;;;;;;;3.97;0.50;;;3.30;91.30;;;;;;2087693;28;20482;-80
2021/01/26 03:05:15;;;;;;;3.03;0.50;;;3.40;91.30;;;;;;2080345;28;20556;-79
2021/01/26 03:06:21;;;;;;;;;;;3.40;91.30;;;;;;2078823;28;20030;-79
2021/01/26 03:07:26;;;;;;;2.47;0.57;;;3.40;91.30;;;;;;2079004;28;19963;-79
2021/01/26 03:08:46;;;;;;;5.32;0.70;;;3.40;91.30;;;;;;2078019;28;20113;-79
2021/01/26 03:09:52;;;;;;;2.83;0.57;;;3.40;91.30;;;;;;2078861;28;20057;-79
2021/01/26 03:11:02;;;;;;;2.50;0.40;;;3.40;91.20;;;;;;2083404;28;20390;-79
2021/01/26 03:12:13;;;;;;;5.03;0.43;;;3.40;91.20;;;;;;2085277;28;20032;-79
2021/01/26 03:13:16;;;;;;;2.97;0.50;;;3.40;91.20;;;;;;2073371;28;20069;-79
2021/01/26 03:14:41;;;;;;;5.45;0.60;;;3.40;91.30;;;;;;2076392;28;20360;-79
2021/01/26 03:15:56;;;;;;;3.65;0.70;;;3.40;91.20;;;;;;2080810;28;20455;-79
2021/01/26 03:17:14;;;;;;;4.20;0.50;;;3.50;91.30;;;;;;2076957;28;20449;-80
2021/01/26 03:18:18;;;;;;;4.00;0.65;;;3.50;91.30;;;;;;2078039;28;20577;-80
2021/01/26 03:19:23;;;;;;;5.60;0.70;;;3.50;91.20;;;;;;2074130;28;20143;-81
2021/01/26 03:20:38;;;;;;;3.70;0.70;;;3.50;91.20;;;;;;2080344;28;20049;-80
2021/01/26 03:21:43;;;;;;;3.83;0.60;;;3.50;91.20;;;;;;2080449;28;20430;-81
2021/01/26 03:22:52;;;;;;;2.05;0.40;;;3.50;91.20;;;;;;2079609;28;20029;-80
2021/01/26 03:24:01;;;;;;;3.78;0.45;;;3.50;91.20;;;;;;2084255;28;20021;-80
2021/01/26 03:25:03;;;;;;;5.63;0.60;;;3.50;91.20;;;;;;2080272;28;20026;-81
2021/01/26 03:26:07;;;;;;;3.97;0.50;;;3.50;91.20;;;;;;2088045;28;20033;-81
2021/01/26 03:27:12;;;;;;;2.67;0.57;;;3.50;91.20;;;;;;2086748;28;20067;-80
2021/01/26 03:28:14;;;;;;;2.65;0.50;;;3.50;91.20;;;;;;2065905;28;20113;-81
2021/01/26 03:29:27;;;;;;;2.80;1.00;;;3.50;91.20;;;;;;2073869;28;20030;-80
2021/01/26 03:30:35;;;;;;;3.22;0.40;;;3.50;91.30;;;;;;2073458;28;20057;-80
2021/01/26 03:31:42;;;;;;;1.73;0.40;;;3.50;91.30;;;;;;2074394;28;20048;-80
2021/01/26 03:32:49;;;;;;;2.70;0.43;;;3.50;91.30;;;;;;2088715;28;20041;-80
2021/01/26 03:33:53;;;;;;;2.72;0.60;;;3.40;91.30;;;;;;2083273;28;20398;-79
2021/01/26 03:34:53;;;;;;;3.20;0.57;;;3.40;91.30;;;;;;2077053;28;20125;-80
2021/01/26 03:35:54;;;;;;;2.80;0.52;;;3.40;91.30;;;;;;2079498;28;20484;-79
2021/01/26 03:36:55;;;;;;;3.75;0.80;;;3.40;91.40;;;;;;2079064;28;20037;-81
2021/01/26 03:38:09;;;;;;;2.60;0.43;;;3.40;91.40;;;;;;2072270;28;20456;-80
2021/01/26 03:39:10;;;;;;;3.83;0.50;;;3.40;91.40;;;;;;2075153;28;20030;-81
2021/01/26 03:40:11;;;;;;;2.78;0.40;;;3.30;91.40;;;;;;2073092;28;20018;-80
2021/01/26 03:41:12;;;;;;;3.45;0.60;;;3.30;91.40;;;;;;2073695;28;20030;-81
2021/01/26 03:42:13;;;;;;;2.13;0.68;;;3.30;91.50;;;;;;2073751;28;20499;-80
2021/01/26 03:43:13;;;;;;;3.50;0.57;;;3.30;91.50;;;;;;2066102;28;20180;-80
2021/01/26 03:44:14;;;;;;;2.50;0.40;;;3.30;91.50;;;;;;2067401;28;20053;-81
2021/01/26 03:45:15;;;;;;;3.78;0.70;;;3.30;91.60;;;;;;2082235;28;20052;-80
2021/01/26 03:46:34;;;;;;;3.45;0.55;;;3.20;91.60;;;;;;2072616;28;20596;-80
2021/01/26 03:47:47;;;;;;;3.92;0.68;;;3.20;91.60;;;;;;2069332;28;20061;-80
2021/01/26 03:49:02;;;;;;;2.72;0.35;;;3.20;91.60;;;;;;2079592;28;20404;-80
2021/01/26 03:50:22;;;;;;;4.45;0.60;;;3.20;91.60;;;;;;2079966;28;20488;-81
2021/01/26 03:51:42;;;;;;;3.08;0.70;;;3.20;91.60;;;;;;2087625;28;20075;-81
2021/01/26 03:53:10;;;;;;;2.60;0.50;;;3.20;91.60;;;;;;2075936;28;20034;-80
2021/01/26 03:54:36;;;;;;;4.70;0.65;;;3.20;91.60;;;;;;2081704;28;20029;-81
2021/01/26 03:55:47;;;;;;;2.42;0.80;;;3.20;91.60;;;;;;2073728;28;20074;-81
2021/01/26 03:57:05;;;;;;;3.95;0.43;;;3.10;91.60;;;;;;2080061;28;20029;-81
2021/01/26 03:58:32;;;;;;;3.00;0.50;;;3.20;91.60;;;;;;2080096;28;20509;-81
2021/01/26 03:59:42;;;;;;;1.80;0.30;;;3.20;91.60;;;;;;2102827;28;20074;-81
2021/01/26 04:01:04;;;;;;;3.13;0.73;;;3.20;91.60;;;;;;2088557;28;20459;-80
2021/01/26 04:02:18;;;;;;;2.63;0.50;;;3.20;91.50;;;;;;2081749;28;20030;-81
2021/01/26 04:03:22;;;;;;;2.95;0.60;;;3.20;91.50;;;;;;2081417;28;20087;-81
2021/01/26 04:04:54;;;;;;;4.53;0.70;;;3.30;91.50;;;;;;2081964;28;20172;-81
2021/01/26 04:06:20;;;;;;;2.30;0.30;;;3.30;91.50;;;;;;2076762;28;20045;-80
2021/01/26 04:07:33;;;;;;;3.20;0.52;;;3.30;91.50;;;;;;2078133;28;20075;-80
2021/01/26 04:08:39;;;;;;;3.15;0.77;;;3.30;91.50;;;;;;2079213;28;20026;-81
2021/01/26 04:09:51;;;;;;;4.88;0.43;;;3.30;91.50;;;;;;2074792;28;20024;-80
2021/01/26 04:10:56;;;;;;;4.15;0.60;;;3.30;91.50;;;;;;2076044;28;20522;-81
2021/01/26 04:12:09;;;;;;;3.13;0.70;;;3.30;91.50;;;;;;2081628;28;20056;-80
2021/01/26 04:13:13;;;;;;;4.10;0.50;;;3.30;91.50;;;;;;2082696;28;20017;-81
2021/01/26 04:14:18;;;;;;;2.30;0.50;;;3.30;91.50;;;;;;2078572;28;20415;-81
2021/01/26 04:15:31;;;;;;;5.20;0.65;;;3.30;91.50;;;;;;2072763;28;20049;-81
2021/01/26 04:17:05;;;;;;;3.83;0.65;;;3.40;91.50;;;;;;2072810;28;20186;-81
2021/01/26 04:18:10;;;;;;;2.70;0.40;;;3.40;91.50;;;;;;2074828;28;20041;-81
2021/01/26 04:19:15;;;;;;;3.40;0.50;;;3.40;91.50;;;;;;2080884;28;20442;-81
2021/01/26 04:20:23;;;;;;;3.40;0.50;;;3.40;91.40;;;;;;2089926;28;20522;-83
2021/01/26 04:21:24;;;;;;;3.03;0.60;;;3.40;91.40;;;;;;2093966;28;20411;-82
2021/01/26 04:22:25;;;;;;;6.00;0.65;;;3.40;91.40;;;;;;2080547;28;20061;-80
2021/01/26 04:23:27;;;;;;;1.50;0.50;;;3.40;91.40;;;;;;2074393;28;20029;-80
2021/01/26 04:24:33;;;;;;;5.22;0.60;;;3.40;91.40;;;;;;2085213;28;20025;-82
2021/01/26 04:25:41;;;;;;;6.38;0.40;;;3.50;91.50;;;;;;2088369;28;20460;-82
2021/01/26 04:26:44;;;;;;;4.97;0.75;;;3.50;91.50;;;;;;2086999;28;20028;-82
2021/01/26 04:27:44;;;;;;;1.85;0.38;;;3.50;91.40;;;;;;2083964;28;20021;-81
2021/01/26 04:28:47;;;;;;;3.58;0.70;;;3.50;91.40;;;;;;2081392;28;20054;-81
2021/01/26 04:29:49;;;;;;;3.70;0.73;;;3.50;91.40;;;;;;2073940;28;20042;-81
2021/01/26 04:30:49;;;;;;;2.70;0.57;;;3.50;91.40;;;;;;2081083;28;20102;-81
2021/01/26 04:31:54;;;;;;;4.13;0.50;;;3.50;91.40;;;;;;2081091;28;20467;-81
2021/01/26 04:33:05;;;;;;;7.03;0.90;;;3.60;91.50;;;;;;2081134;28;20028;-82
2021/01/26 04:34:06;;;;;;;5.20;0.70;;;3.50;91.50;;;;;;2081474;28;20423;-82
2021/01/26 04:35:07;;;;;;;3.47;0.50;;;3.60;91.50;;;;;;2080584;28;20136;-82
2021/01/26 04:36:09;;;;;;;2.65;0.60;;;3.60;91.50;;;;;;2080750;28;20037;-82
2021/01/26 04:37:10;;;;;;;3.88;0.80;;;3.60;91.50;;;;;;2079085;28;20454;-82
2021/01/26 04:38:11;;;;;;;2.90;0.57;;;3.60;91.50;;;;;;2072959;28;20065;-81
2021/01/26 04:39:11;;;;;;;5.38;0.90;;;3.60;91.50;;;;;;2080523;28;20025;-81
2021/01/26 04:40:12;;;;;;;6.00;0.88;;;3.60;91.50;;;;;;2086156;28;20158;-82
2021/01/26 04:41:39;;;;;;;4.07;0.52;;;3.60;91.50;;;;;;2081304;28;20128;-81
2021/01/26 04:42:40;;;;;;;3.53;0.60;;;3.60;91.50;;;;;;2080524;28;20031;-82
2021/01/26 04:43:50;;;;;;;6.00;0.60;;;3.60;91.50;;;;;;2075421;28;20037;-82
2021/01/26 04:45:25;;;;;;;2.45;0.43;;;3.70;91.50;;;;;;2078763;28;20025;-82
2021/01/26 04:46:51;;;;;;;3.70;0.40;;;3.60;91.40;;;;;;2069353;28;20088;-82
2021/01/26 04:48:06;;;;;;;5.78;0.73;;;3.60;91.40;;;;;;2074435;28;20026;-82
2021/01/26 04:49:34;;;;;;;2.63;0.63;;;3.70;91.40;;;;;;2077454;28;20030;-82
2021/01/26 04:50:56;;;;;;;1.50;0.40;;;3.70;91.40;;;;;;2078159;28;20033;-82
2021/01/26 04:52:18;;;;;;;4.00;0.40;;;3.60;91.40;;;;;;2081019;28;20025;-80
2021/01/26 04:54:04;;;;;;;4.15;0.50;;;3.60;91.40;;;;;;2074994;28;20272;-81
2021/01/26 04:55:40;;;;;;;3.05;0.55;;;3.60;91.40;;;;;;2077101;28;20037;-81
2021/01/26 04:57:10;;;;;;;3.22;0.60;;;3.60;91.40;;;;;;2075757;28;20411;-80
2021/01/26 04:58:48;;;;;;;5.45;0.50;;;3.60;91.40;;;;;;2078656;28;20029;-81
2021/01/26 05:00:13;;;;;;;5.03;0.60;;;3.60;91.40;;;;;;2084610;28;20436;-80
2021/01/26 05:01:37;;;;;;;3.38;0.50;;;3.60;91.40;;;;;;2086130;28;20403;-80
2021/01/26 05:02:58;;;;;;;1.85;0.47;;;3.60;91.40;;;;;;2079835;28;20086;-80
2021/01/26 05:04:09;;;;;;;2.95;0.47;;;3.60;91.40;;;;;;2068028;28;20038;-80
2021/01/26 05:05:13;;;;;;;3.85;0.55;;;3.60;91.40;;;;;;2072794;28;20037;-80
2021/01/26 05:06:18;;;;;;;3.17;0.80;;;3.60;91.40;;;;;;2079252;28;20115;-80
2021/01/26 05:07:25;;;;;;;8.45;0.98;;;3.60;91.40;;;;;;2080315;28;20465;-80
2021/01/26 05:08:34;;;;;;;3.75;0.60;;;3.60;91.50;;;;;;2080767;28;20479;-81
2021/01/26 05:09:42;;;;;;;5.10;0.80;;;3.60;91.50;;;;;;2079468;28;20071;-80
2021/01/26 05:10:48;;;;;;;6.88;0.80;;;3.60;91.50;;;;;;2073577;28;20026;-80
2021/01/26 05:11:49;;;;;;;4.95;1.02;;;3.70;91.50;;;;;;2076159;28;20037;-80
2021/01/26 05:13:04;;;;;;;4.05;0.73;;;3.60;91.50;;;;;;2076205;28;20026;-80
2021/01/26 05:14:19;;;;;;;3.70;0.60;;;3.70;91.50;;;;;;2075858;28;20033;-80
2021/01/26 05:15:23;;;;;;;3.45;0.70;;;3.70;91.50;;;;;;2084313;28;20470;-80
2021/01/26 05:16:39;;;;;;;5.00;0.60;;;3.70;91.70;;;;;;2082866;28;20102;-80
2021/01/26 05:18:09;;;;;;;5.97;0.75;;;3.70;91.50;;;;;;2074969;28;20057;-80
2021/01/26 05:19:25;;;;;;;3.03;0.70;;;3.70;91.50;;;;;;2069282;28;20073;-80
2021/01/26 05:20:33;;;;;;;4.05;0.75;;;3.70;91.40;;;;;;2081932;28;20426;-80
2021/01/26 05:21:46;;;;;;;3.53;0.43;;;3.80;91.40;;;;;;2088868;28;20545;-80
2021/01/26 05:23:26;;;;;;;5.05;0.70;;;3.80;91.40;;;;;;2075595;28;20057;-80
2021/01/26 05:24:42;;;;;;;3.53;0.63;;;3.80;91.40;;;;;;2076194;28;20088;-80
2021/01/26 05:25:42;;;;;;;3.33;0.57;;;3.80;91.40;;;;;;2072385;28;20046;-80
2021/01/26 05:26:43;;;;;;;4.90;0.70;;;3.80;91.40;;;;;;2072073;28;20134;-80
2021/01/26 05:27:44;;;;;;;5.38;0.80;;;3.80;91.40;;;;;;2083498;28;20041;-80
2021/01/26 05:28:46;;;;;;;6.07;0.90;;;3.80;91.40;;;;;;2081368;28;20026;-80
2021/01/26 05:29:46;;;;;;;5.35;0.80;;;3.80;91.40;;;;;;2081266;28;20144;-80
2021/01/26 05:31:05;;;;;;;7.68;0.77;;;3.80;91.50;;;;;;2077835;28;20034;-80
2021/01/26 05:32:08;;;;;;;8.30;0.88;;;3.80;91.50;;;;;;2073791;28;20484;-80
2021/01/26 05:33:12;;;;;;;3.95;0.55;;;3.80;91.50;;;;;;2088955;28;20449;-80
2021/01/26 05:34:15;;;;;;;3.03;0.50;;;3.80;91.50;;;;;;2087508;28;20059;-80
2021/01/26 05:35:17;;;;;;;5.68;0.80;;;3.80;91.50;;;;;;2088945;28;20487;-80
2021/01/26 05:36:18;;;;;;;6.55;0.80;;;3.80;91.50;;;;;;2084818;28;20033;-80
2021/01/26 05:37:19;;;;;;;4.75;0.73;;;3.80;91.50;;;;;;2075143;28;20069;-80
2021/01/26 05:38:21;;;;;;;5.60;0.80;;;3.80;91.50;;;;;;2072564;28;20045;-79
2021/01/26 05:39:42;;;;;;;5.78;0.80;;;3.80;91.50;;;;;;2080989;28;20033;-80
2021/01/26 05:40:49;;;;;;;6.55;0.90;;;3.80;91.50;;;;;;2085227;28;20045;-80
2021/01/26 05:41:50;;;;;;;3.13;0.52;;;3.80;91.50;;;;;;2079756;28;20025;-80
2021/01/26 05:42:57;;;;;;;3.58;0.70;;;3.80;91.50;;;;;;2079040;28;20060;-80
2021/01/26 05:43:59;;;;;;;3.90;0.90;;;3.80;91.50;;;;;;2079398;28;20025;-80
2021/01/26 05:45:06;;;;;;;5.78;0.85;;;3.80;91.50;;;;;;2081689;28;20029;-80
2021/01/26 05:46:09;;;;;;;2.85;0.52;;;3.80;91.80;;;;;;2075216;28;20483;-80
2021/01/26 05:47:29;;;;;;;5.07;0.70;;;3.80;91.50;;;;;;2080745;28;20060;-80
2021/01/26 05:48:45;;;;;;;4.55;0.65;;;3.90;91.60;;;;;;2080190;28;20438;-80
2021/01/26 05:49:46;;;;;;;3.83;0.60;;;3.80;91.60;;;;;;2081570;28;20124;-80
2021/01/26 05:50:48;;;;;;;4.55;0.80;;;3.90;91.60;;;;;;2080137;28;20037;-80
2021/01/26 05:51:53;;;;;;;4.50;0.80;;;3.80;91.50;;;;;;2086611;28;20021;-80
2021/01/26 05:53:03;;;;;;;5.00;0.93;;;3.90;91.60;;;;;;2077332;28;20084;-81
2021/01/26 05:54:19;;;;;;;4.65;1.08;;;3.80;91.60;;;;;;2080563;28;20476;-80
2021/01/26 05:55:28;;;;;;;2.35;0.60;;;3.90;91.60;;;;;;2083506;28;20476;-80
2021/01/26 05:56:30;;;;;;;2.63;0.47;;;3.80;91.60;;;;;;2087260;28;20049;-81
2021/01/26 05:57:34;;;;;;;4.00;0.57;;;3.80;91.60;;;;;;2077095;28;20036;-81